sensor_id;sensor_type;location;lat;lon;timestamp;temperature;humidity
44431;DHT22;30135;47.866;-4.222;2023-02-01T16:55:15;11.10;85.20
44431;DHT22;30135;47.866;-4.222;2023-02-01T16:57:50;11.10;85.10
44431;DHT22;30135;47.866;-4.222;2023-02-01T17:00:17;11.10;85.20
44431;DHT22;30135;47.866;-4.222;2023-02-01T17:02:43;11.10;85.20
44431;DHT22;30135;47.866;-4.222;2023-02-01T17:05:11;11.10;85.10
44431;DHT22;30135;47.866;-4.222;2023-02-01T17:07:38;11.10;85.00
44431;DHT22;30135;47.866;-4.222;2023-02-01T17:10:06;11.10;85.00
44431;DHT22;30135;47.866;-4.222;2023-02-01T17:12:40;11.00;85.00
44431;DHT22;30135;47.866;-4.222;2023-02-01T17:15:07;11.10;85.30
44431;DHT22;30135;47.866;-4.222;2023-02-01T17:17:38;11.10;85.10
44431;DHT22;30135;47.866;-4.222;2023-02-01T17:20:20;11.00;85.30
44431;DHT22;30135;47.866;-4.222;2023-02-01T17:22:48;11.00;85.30
44431;DHT22;30135;47.866;-4.222;2023-02-01T17:25:20;11.00;85.30
44431;DHT22;30135;47.866;-4.222;2023-02-01T17:27:48;11.00;85.20
44431;DHT22;30135;47.866;-4.222;2023-02-01T17:30:15;11.00;85.30
44431;DHT22;30135;47.866;-4.222;2023-02-01T17:32:41;11.00;85.10
44431;DHT22;30135;47.866;-4.222;2023-02-01T17:35:25;11.00;85.10
44431;DHT22;30135;47.866;-4.222;2023-02-01T17:37:53;11.00;85.10
44431;DHT22;30135;47.866;-4.222;2023-02-01T17:40:19;11.00;85.20
44431;DHT22;30135;47.866;-4.222;2023-02-01T17:42:45;11.00;85.30
44431;DHT22;30135;47.866;-4.222;2023-02-01T17:48:07;10.90;85.10
44431;DHT22;30135;47.866;-4.222;2023-02-01T17:50:35;11.00;85.10
44431;DHT22;30135;47.866;-4.222;2023-02-01T17:53:03;11.00;85.10
44431;DHT22;30135;47.866;-4.222;2023-02-01T17:55:35;10.90;85.30
44431;DHT22;30135;47.866;-4.222;2023-02-01T17:58:05;10.90;85.40
44431;DHT22;30135;47.866;-4.222;2023-02-01T18:00:31;10.90;85.20
44431;DHT22;30135;47.866;-4.222;2023-02-01T18:02:57;10.90;85.30
44431;DHT22;30135;47.866;-4.222;2023-02-01T18:05:42;10.90;85.40
44431;DHT22;30135;47.866;-4.222;2023-02-01T18:08:16;10.90;85.40
44431;DHT22;30135;47.866;-4.222;2023-02-01T18:10:43;10.90;85.50
44431;DHT22;30135;47.866;-4.222;2023-02-01T18:13:10;10.90;85.60
44431;DHT22;30135;47.866;-4.222;2023-02-01T18:15:37;10.90;85.60
44431;DHT22;30135;47.866;-4.222;2023-02-01T18:18:10;10.90;85.80
44431;DHT22;30135;47.866;-4.222;2023-02-01T18:20:39;10.90;85.90
44431;DHT22;30135;47.866;-4.222;2023-02-01T18:23:19;10.90;86.00
44431;DHT22;30135;47.866;-4.222;2023-02-01T18:25:48;10.90;86.00
44431;DHT22;30135;47.866;-4.222;2023-02-01T18:28:16;10.90;86.10
44431;DHT22;30135;47.866;-4.222;2023-02-01T18:30:44;10.90;86.30
44431;DHT22;30135;47.866;-4.222;2023-02-01T18:33:13;10.90;86.30
44431;DHT22;30135;47.866;-4.222;2023-02-01T18:35:42;10.80;86.80
44431;DHT22;30135;47.866;-4.222;2023-02-01T18:38:09;10.80;86.50
44431;DHT22;30135;47.866;-4.222;2023-02-01T18:40:40;10.80;86.50
44431;DHT22;30135;47.866;-4.222;2023-02-01T18:43:20;10.80;86.50
44431;DHT22;30135;47.866;-4.222;2023-02-01T18:45:46;10.80;86.60
44431;DHT22;30135;47.866;-4.222;2023-02-01T18:48:14;10.80;86.80
44431;DHT22;30135;47.866;-4.222;2023-02-01T18:50:43;10.80;86.80
44431;DHT22;30135;47.866;-4.222;2023-02-01T18:53:19;10.80;86.90
44431;DHT22;30135;47.866;-4.222;2023-02-01T18:55:47;10.80;86.90
44431;DHT22;30135;47.866;-4.222;2023-02-01T18:58:14;10.80;86.90
44431;DHT22;30135;47.866;-4.222;2023-02-01T19:00:43;10.80;87.00
44431;DHT22;30135;47.866;-4.222;2023-02-01T19:03:11;10.80;87.10
44431;DHT22;30135;47.866;-4.222;2023-02-01T19:05:38;10.80;87.20
44431;DHT22;30135;47.866;-4.222;2023-02-01T19:08:04;10.80;87.20
44431;DHT22;30135;47.866;-4.222;2023-02-01T19:10:30;10.80;87.10
44431;DHT22;30135;47.866;-4.222;2023-02-01T19:12:57;10.80;87.20
44431;DHT22;30135;47.866;-4.222;2023-02-01T19:15:24;10.80;87.40
44431;DHT22;30135;47.866;-4.222;2023-02-01T19:17:52;10.70;87.30
44431;DHT22;30135;47.866;-4.222;2023-02-01T19:20:22;10.80;87.40
44431;DHT22;30135;47.866;-4.222;2023-02-01T19:22:49;10.80;87.50
44431;DHT22;30135;47.866;-4.222;2023-02-01T19:25:21;10.70;88.00
44431;DHT22;30135;47.866;-4.222;2023-02-01T19:27:49;10.70;87.60
44431;DHT22;30135;47.866;-4.222;2023-02-01T19:30:18;10.70;87.60
44431;DHT22;30135;47.866;-4.222;2023-02-01T19:32:45;10.70;87.70
44431;DHT22;30135;47.866;-4.222;2023-02-01T19:35:14;10.70;87.80
44431;DHT22;30135;47.866;-4.222;2023-02-01T19:37:44;10.70;87.90
44431;DHT22;30135;47.866;-4.222;2023-02-01T19:40:13;10.70;88.00
44431;DHT22;30135;47.866;-4.222;2023-02-01T19:42:40;10.70;88.00
44431;DHT22;30135;47.866;-4.222;2023-02-01T19:45:06;10.70;87.90
44431;DHT22;30135;47.866;-4.222;2023-02-01T19:47:33;10.70;87.70
44431;DHT22;30135;47.866;-4.222;2023-02-01T19:49:59;10.60;87.60
44431;DHT22;30135;47.866;-4.222;2023-02-01T19:52:26;10.60;87.60
44431;DHT22;30135;47.866;-4.222;2023-02-01T19:54:52;10.60;87.50
44431;DHT22;30135;47.866;-4.222;2023-02-01T19:57:18;10.60;87.50
44431;DHT22;30135;47.866;-4.222;2023-02-01T19:59:44;10.60;87.40
44431;DHT22;30135;47.866;-4.222;2023-02-01T20:02:16;10.60;87.40
44431;DHT22;30135;47.866;-4.222;2023-02-01T20:04:42;10.60;87.40
44431;DHT22;30135;47.866;-4.222;2023-02-01T20:07:08;10.60;87.50
44431;DHT22;30135;47.866;-4.222;2023-02-01T20:09:39;10.60;87.50
44431;DHT22;30135;47.866;-4.222;2023-02-01T20:12:09;10.60;87.50
44431;DHT22;30135;47.866;-4.222;2023-02-01T20:14:37;10.50;87.50
44431;DHT22;30135;47.866;-4.222;2023-02-01T20:17:04;10.50;87.50
44431;DHT22;30135;47.866;-4.222;2023-02-01T20:19:32;10.50;87.50
44431;DHT22;30135;47.866;-4.222;2023-02-01T20:21:58;10.50;87.60
44431;DHT22;30135;47.866;-4.222;2023-02-01T20:24:25;10.50;87.60
44431;DHT22;30135;47.866;-4.222;2023-02-01T20:26:51;10.50;87.70
44431;DHT22;30135;47.866;-4.222;2023-02-01T20:29:18;10.40;87.80
44431;DHT22;30135;47.866;-4.222;2023-02-01T20:31:44;10.50;88.00
44431;DHT22;30135;47.866;-4.222;2023-02-01T20:34:11;10.40;87.90
44431;DHT22;30135;47.866;-4.222;2023-02-01T20:36:37;10.40;88.00
44431;DHT22;30135;47.866;-4.222;2023-02-01T20:39:04;10.40;88.00
44431;DHT22;30135;47.866;-4.222;2023-02-01T20:41:30;10.40;88.00
44431;DHT22;30135;47.866;-4.222;2023-02-01T20:43:56;10.40;88.10
44431;DHT22;30135;47.866;-4.222;2023-02-01T20:46:22;10.40;88.10
44431;DHT22;30135;47.866;-4.222;2023-02-01T20:48:50;10.40;88.20
44431;DHT22;30135;47.866;-4.222;2023-02-01T20:51:18;10.40;88.50
44431;DHT22;30135;47.866;-4.222;2023-02-01T20:53:46;10.30;88.60
44431;DHT22;30135;47.866;-4.222;2023-02-01T20:56:13;10.40;88.60
44431;DHT22;30135;47.866;-4.222;2023-02-01T20:58:41;10.40;88.60
44431;DHT22;30135;47.866;-4.222;2023-02-01T21:01:08;10.30;88.50
44431;DHT22;30135;47.866;-4.222;2023-02-01T21:03:35;10.40;88.60
44431;DHT22;30135;47.866;-4.222;2023-02-01T21:06:03;10.30;88.40
44431;DHT22;30135;47.866;-4.222;2023-02-01T21:08:30;10.30;88.40
44431;DHT22;30135;47.866;-4.222;2023-02-01T21:11:00;10.30;88.40
44431;DHT22;30135;47.866;-4.222;2023-02-01T21:13:30;10.30;88.50
44431;DHT22;30135;47.866;-4.222;2023-02-01T21:16:01;10.30;88.50
44431;DHT22;30135;47.866;-4.222;2023-02-01T21:18:28;10.30;88.50
44431;DHT22;30135;47.866;-4.222;2023-02-01T21:20:56;10.20;88.40
44431;DHT22;30135;47.866;-4.222;2023-02-01T21:23:22;10.20;88.60
44431;DHT22;30135;47.866;-4.222;2023-02-01T21:25:48;10.20;88.60
44431;DHT22;30135;47.866;-4.222;2023-02-01T21:28:14;10.20;88.70
44431;DHT22;30135;47.866;-4.222;2023-02-01T21:30:41;10.20;89.50
44431;DHT22;30135;47.866;-4.222;2023-02-01T21:33:07;10.20;88.80
44431;DHT22;30135;47.866;-4.222;2023-02-01T21:35:33;10.20;88.80
44431;DHT22;30135;47.866;-4.222;2023-02-01T21:38:00;10.10;88.80
44431;DHT22;30135;47.866;-4.222;2023-02-01T21:40:26;10.10;88.90
44431;DHT22;30135;47.866;-4.222;2023-02-01T21:42:52;10.10;89.00
44431;DHT22;30135;47.866;-4.222;2023-02-01T21:45:18;10.10;89.10
44431;DHT22;30135;47.866;-4.222;2023-02-01T21:47:44;10.10;89.20
44431;DHT22;30135;47.866;-4.222;2023-02-01T21:50:18;10.10;89.30
44431;DHT22;30135;47.866;-4.222;2023-02-01T21:52:45;10.10;89.30
44431;DHT22;30135;47.866;-4.222;2023-02-01T21:55:12;10.10;89.40
44431;DHT22;30135;47.866;-4.222;2023-02-01T21:57:39;10.10;89.50
44431;DHT22;30135;47.866;-4.222;2023-02-01T22:00:06;10.10;89.50
44431;DHT22;30135;47.866;-4.222;2023-02-01T22:02:34;10.10;89.50
44431;DHT22;30135;47.866;-4.222;2023-02-01T22:05:01;10.10;89.60
44431;DHT22;30135;47.866;-4.222;2023-02-01T22:07:30;10.10;89.60
44431;DHT22;30135;47.866;-4.222;2023-02-01T22:09:56;10.10;89.80
44431;DHT22;30135;47.866;-4.222;2023-02-01T22:12:22;10.10;89.90
44431;DHT22;30135;47.866;-4.222;2023-02-01T22:14:48;10.10;89.90
44431;DHT22;30135;47.866;-4.222;2023-02-01T22:17:14;10.10;89.80
44431;DHT22;30135;47.866;-4.222;2023-02-01T22:19:40;10.10;89.80
44431;DHT22;30135;47.866;-4.222;2023-02-01T22:22:07;10.10;89.80
44431;DHT22;30135;47.866;-4.222;2023-02-01T22:24:36;10.10;89.80
44431;DHT22;30135;47.866;-4.222;2023-02-01T22:27:02;10.10;89.80
44431;DHT22;30135;47.866;-4.222;2023-02-01T22:29:28;10.10;89.80
44431;DHT22;30135;47.866;-4.222;2023-02-01T22:31:54;10.10;90.00
44431;DHT22;30135;47.866;-4.222;2023-02-01T22:34:20;10.10;90.00
44431;DHT22;30135;47.866;-4.222;2023-02-01T22:36:49;10.10;90.00
44431;DHT22;30135;47.866;-4.222;2023-02-01T22:39:15;10.10;90.10
44431;DHT22;30135;47.866;-4.222;2023-02-01T22:41:41;10.10;90.10
44431;DHT22;30135;47.866;-4.222;2023-02-01T22:44:07;10.20;90.10
44431;DHT22;30135;47.866;-4.222;2023-02-01T22:46:33;10.20;90.00
44431;DHT22;30135;47.866;-4.222;2023-02-01T22:49:03;10.20;89.90
44431;DHT22;30135;47.866;-4.222;2023-02-01T22:51:31;10.20;89.60
44431;DHT22;30135;47.866;-4.222;2023-02-01T22:53:57;10.20;89.70
44431;DHT22;30135;47.866;-4.222;2023-02-01T22:56:26;10.20;89.60
44431;DHT22;30135;47.866;-4.222;2023-02-01T22:59:02;10.20;89.50
44431;DHT22;30135;47.866;-4.222;2023-02-01T23:01:30;10.30;89.60
44431;DHT22;30135;47.866;-4.222;2023-02-01T23:04:02;10.20;89.40
44431;DHT22;30135;47.866;-4.222;2023-02-01T23:06:31;10.20;89.40
44431;DHT22;30135;47.866;-4.222;2023-02-01T23:09:01;10.30;89.30
44431;DHT22;30135;47.866;-4.222;2023-02-01T23:11:30;10.30;89.20
44431;DHT22;30135;47.866;-4.222;2023-02-01T23:13:56;10.30;89.10
44431;DHT22;30135;47.866;-4.222;2023-02-01T23:16:23;10.30;89.10
44431;DHT22;30135;47.866;-4.222;2023-02-01T23:18:49;10.30;89.00
44431;DHT22;30135;47.866;-4.222;2023-02-01T23:21:18;10.30;89.10
44431;DHT22;30135;47.866;-4.222;2023-02-01T23:23:46;10.30;89.00
44431;DHT22;30135;47.866;-4.222;2023-02-01T23:26:13;10.30;89.00
44431;DHT22;30135;47.866;-4.222;2023-02-01T23:28:40;10.30;89.00
44431;DHT22;30135;47.866;-4.222;2023-02-01T23:31:07;10.30;89.00
44431;DHT22;30135;47.866;-4.222;2023-02-01T23:33:36;10.30;89.00
44431;DHT22;30135;47.866;-4.222;2023-02-01T23:36:04;10.30;89.10
44431;DHT22;30135;47.866;-4.222;2023-02-01T23:38:32;10.30;89.10
44431;DHT22;30135;47.866;-4.222;2023-02-01T23:41:01;10.30;89.10
44431;DHT22;30135;47.866;-4.222;2023-02-01T23:43:29;10.30;89.10
44431;DHT22;30135;47.866;-4.222;2023-02-01T23:46:15;10.30;89.00
44431;DHT22;30135;47.866;-4.222;2023-02-01T23:48:42;10.30;89.00
44431;DHT22;30135;47.866;-4.222;2023-02-01T23:51:09;10.30;89.00
44431;DHT22;30135;47.866;-4.222;2023-02-01T23:53:35;10.30;89.00
44431;DHT22;30135;47.866;-4.222;2023-02-01T23:56:02;10.30;89.00
44431;DHT22;30135;47.866;-4.222;2023-02-01T23:58:28;10.30;89.10
